sensor_id;sensor_type;location;lat;lon;timestamp;pressure;altitude;pressure_sealevel;temperature
18161;BMP280;9205;52.032;4.314;2023-09-19T00:00:37;100618.63;;;17.99
18161;BMP280;9205;52.032;4.314;2023-09-19T00:03:06;100622.94;;;17.99
18161;BMP280;9205;52.032;4.314;2023-09-19T00:05:38;100617.78;;;17.99
18161;BMP280;9205;52.032;4.314;2023-09-19T00:08:05;100625.50;;;17.99
18161;BMP280;9205;52.032;4.314;2023-09-19T00:10:34;100629.72;;;18.00
18161;BMP280;9205;52.032;4.314;2023-09-19T00:13:02;100636.53;;;18.01
18161;BMP280;9205;52.032;4.314;2023-09-19T00:15:38;100626.41;;;17.98
18161;BMP280;9205;52.032;4.314;2023-09-19T00:18:06;100620.47;;;17.97
18161;BMP280;9205;52.032;4.314;2023-09-19T00:20:37;100628.25;;;17.96
18161;BMP280;9205;52.032;4.314;2023-09-19T00:23:05;100629.72;;;18.00
18161;BMP280;9205;52.032;4.314;2023-09-19T00:25:34;100632.31;;;18.00
18161;BMP280;9205;52.032;4.314;2023-09-19T00:28:03;100636.53;;;18.01
18161;BMP280;9205;52.032;4.314;2023-09-19T00:30:32;100639.84;;;18.03
18161;BMP280;9205;52.032;4.314;2023-09-19T00:32:59;100638.00;;;18.04
18161;BMP280;9205;52.032;4.314;2023-09-19T00:35:28;100641.44;;;18.05
18161;BMP280;9205;52.032;4.314;2023-09-19T00:37:58;100643.09;;;18.06
18161;BMP280;9205;52.032;4.314;2023-09-19T00:40:25;100643.09;;;18.06
18161;BMP280;9205;52.032;4.314;2023-09-19T00:42:57;100644.09;;;18.04
18161;BMP280;9205;52.032;4.314;2023-09-19T00:45:25;100645.81;;;18.03
18161;BMP280;9205;52.032;4.314;2023-09-19T00:47:54;100645.81;;;18.03
18161;BMP280;9205;52.032;4.314;2023-09-19T00:50:25;100649.38;;;18.01
18161;BMP280;9205;52.032;4.314;2023-09-19T00:52:55;100642.59;;;18.00
18161;BMP280;9205;52.032;4.314;2023-09-19T00:55:25;100652.09;;;17.98
18161;BMP280;9205;52.032;4.314;2023-09-19T00:57:56;100652.97;;;17.98
18161;BMP280;9205;52.032;4.314;2023-09-19T01:00:24;100659.09;;;17.96
18161;BMP280;9205;52.032;4.314;2023-09-19T01:02:52;100658.25;;;17.95
18161;BMP280;9205;52.032;4.314;2023-09-19T01:05:19;100662.47;;;17.96
18161;BMP280;9205;52.032;4.314;2023-09-19T01:07:46;100666.97;;;17.93
18161;BMP280;9205;52.032;4.314;2023-09-19T01:10:17;100657.59;;;17.92
18161;BMP280;9205;52.032;4.314;2023-09-19T01:12:58;100661.06;;;17.91
18161;BMP280;9205;52.032;4.314;2023-09-19T01:15:44;100660.16;;;17.92
18161;BMP280;9205;52.032;4.314;2023-09-19T01:18:27;100649.97;;;17.90
18161;BMP280;9205;52.032;4.314;2023-09-19T01:21:05;100662.63;;;17.93
18161;BMP280;9205;52.032;4.314;2023-09-19T01:24:10;100666.88;;;17.94
18161;BMP280;9205;52.032;4.314;2023-09-19T01:27:14;100662.56;;;17.95
18161;BMP280;9205;52.032;4.314;2023-09-19T01:29:48;100662.56;;;17.95
18161;BMP280;9205;52.032;4.314;2023-09-19T01:32:20;100668.44;;;17.97
18161;BMP280;9205;52.032;4.314;2023-09-19T01:34:50;100666.06;;;17.94
18161;BMP280;9205;52.032;4.314;2023-09-19T01:37:21;100666.16;;;17.92
18161;BMP280;9205;52.032;4.314;2023-09-19T01:39:55;100672.44;;;17.87
18161;BMP280;9205;52.032;4.314;2023-09-19T01:42:35;100663.81;;;17.88
18161;BMP280;9205;52.032;4.314;2023-09-19T01:45:12;100661.41;;;17.85
18161;BMP280;9205;52.032;4.314;2023-09-19T01:47:50;100671.69;;;17.85
18161;BMP280;9205;52.032;4.314;2023-09-19T01:50:30;100660.59;;;17.84
18161;BMP280;9205;52.032;4.314;2023-09-19T01:53:05;100665.88;;;17.81
18161;BMP280;9205;52.032;4.314;2023-09-19T01:55:41;100668.59;;;17.78
18161;BMP280;9205;52.032;4.314;2023-09-19T01:58:20;100655.94;;;17.75
18161;BMP280;9205;52.032;4.314;2023-09-19T02:00:49;100663.69;;;17.74
18161;BMP280;9205;52.032;4.314;2023-09-19T02:03:21;100657.75;;;17.73
18161;BMP280;9205;52.032;4.314;2023-09-19T02:05:50;100662.78;;;17.75
18161;BMP280;9205;52.032;4.314;2023-09-19T02:08:22;100665.59;;;17.70
18161;BMP280;9205;52.032;4.314;2023-09-19T02:10:50;100655.19;;;17.73
18161;BMP280;9205;52.032;4.314;2023-09-19T02:13:21;100659.50;;;17.73
18161;BMP280;9205;52.032;4.314;2023-09-19T02:15:49;100666.34;;;17.72
18161;BMP280;9205;52.032;4.314;2023-09-19T02:18:18;100659.41;;;17.74
18161;BMP280;9205;52.032;4.314;2023-09-19T02:20:46;100666.34;;;17.72
18161;BMP280;9205;52.032;4.314;2023-09-19T02:23:14;100671.34;;;17.75
18161;BMP280;9205;52.032;4.314;2023-09-19T02:25:42;100673.81;;;17.77
18161;BMP280;9205;52.032;4.314;2023-09-19T02:28:10;100668.53;;;17.80
18161;BMP280;9205;52.032;4.314;2023-09-19T02:30:38;100677.81;;;17.82
18161;BMP280;9205;52.032;4.314;2023-09-19T02:33:05;100671.00;;;17.81
18161;BMP280;9205;52.032;4.314;2023-09-19T02:35:35;100676.06;;;17.83
18161;BMP280;9205;52.032;4.314;2023-09-19T02:38:03;100680.28;;;17.84
18161;BMP280;9205;52.032;4.314;2023-09-19T02:40:32;100680.19;;;17.85
18161;BMP280;9205;52.032;4.314;2023-09-19T02:43:02;100670.59;;;17.89
18161;BMP280;9205;52.032;4.314;2023-09-19T02:45:29;100674.66;;;17.93
18161;BMP280;9205;52.032;4.314;2023-09-19T02:47:57;100665.06;;;17.96
18161;BMP280;9205;52.032;4.314;2023-09-19T02:50:24;100651.97;;;18.01
18161;BMP280;9205;52.032;4.314;2023-09-19T02:52:52;100655.28;;;18.03
18161;BMP280;9205;52.032;4.314;2023-09-19T02:55:20;100669.84;;;18.02
18161;BMP280;9205;52.032;4.314;2023-09-19T02:57:48;100668.94;;;18.03
18161;BMP280;9205;52.032;4.314;2023-09-19T03:00:19;100674.19;;;18.02
18161;BMP280;9205;52.032;4.314;2023-09-19T03:02:48;100668.13;;;18.03
18161;BMP280;9205;52.032;4.314;2023-09-19T03:05:15;100673.19;;;18.04
18161;BMP280;9205;52.032;4.314;2023-09-19T03:07:43;100673.75;;;18.09
18161;BMP280;9205;52.032;4.314;2023-09-19T03:10:14;100681.41;;;18.10
18161;BMP280;9205;52.032;4.314;2023-09-19T03:12:42;100670.34;;;18.08
18161;BMP280;9205;52.032;4.314;2023-09-19T03:15:09;100672.03;;;18.09
18161;BMP280;9205;52.032;4.314;2023-09-19T03:17:37;100673.69;;;18.10
18161;BMP280;9205;52.032;4.314;2023-09-19T03:20:06;100665.22;;;18.08
18161;BMP280;9205;52.032;4.314;2023-09-19T03:22:35;100669.34;;;18.11
18161;BMP280;9205;52.032;4.314;2023-09-19T03:25:03;100660.59;;;18.15
18161;BMP280;9205;52.032;4.314;2023-09-19T03:27:36;100664.88;;;18.14
18161;BMP280;9205;52.032;4.314;2023-09-19T03:30:05;100656.41;;;18.12
18161;BMP280;9205;52.032;4.314;2023-09-19T03:36:59;100667.03;;;18.06
18161;BMP280;9205;52.032;4.314;2023-09-19T03:39:26;100680.13;;;18.02
18161;BMP280;9205;52.032;4.314;2023-09-19T03:41:54;100684.47;;;18.02
18161;BMP280;9205;52.032;4.314;2023-09-19T03:44:22;100682.66;;;18.04
18161;BMP280;9205;52.032;4.314;2023-09-19T03:46:49;100686.19;;;18.01
18161;BMP280;9205;52.032;4.314;2023-09-19T03:49:16;100693.84;;;18.03
18161;BMP280;9205;52.032;4.314;2023-09-19T03:51:45;100687.09;;;18.00
18161;BMP280;9205;52.032;4.314;2023-09-19T03:54:12;100699.13;;;18.00
18161;BMP280;9205;52.032;4.314;2023-09-19T03:56:39;100693.22;;;17.98
18161;BMP280;9205;52.032;4.314;2023-09-19T03:59:06;100694.06;;;17.98
18161;BMP280;9205;52.032;4.314;2023-09-19T04:01:36;100696.69;;;17.97
18161;BMP280;9205;52.032;4.314;2023-09-19T04:04:04;100697.69;;;17.94
18161;BMP280;9205;52.032;4.314;2023-09-19T04:06:36;100698.78;;;17.90
18161;BMP280;9205;52.032;4.314;2023-09-19T04:09:04;100710.88;;;17.88
18161;BMP280;9205;52.032;4.314;2023-09-19T04:11:33;100722.97;;;17.86
18161;BMP280;9205;52.032;4.314;2023-09-19T04:14:03;100721.16;;;17.88
18161;BMP280;9205;52.032;4.314;2023-09-19T04:16:31;100715.94;;;17.90
18161;BMP280;9205;52.032;4.314;2023-09-19T04:19:00;100719.41;;;17.89
18161;BMP280;9205;52.032;4.314;2023-09-19T04:21:28;100720.34;;;17.88
18161;BMP280;9205;52.032;4.314;2023-09-19T04:23:55;100717.94;;;17.85
18161;BMP280;9205;52.032;4.314;2023-09-19T04:26:23;100711.13;;;17.84
18161;BMP280;9205;52.032;4.314;2023-09-19T04:28:51;100712.94;;;17.82
18161;BMP280;9205;52.032;4.314;2023-09-19T04:31:19;100711.47;;;17.78
18161;BMP280;9205;52.032;4.314;2023-09-19T04:33:47;100707.78;;;17.82
18161;BMP280;9205;52.032;4.314;2023-09-19T04:36:16;100717.34;;;17.80
18161;BMP280;9205;52.032;4.314;2023-09-19T04:38:43;100723.31;;;17.80
18161;BMP280;9205;52.032;4.314;2023-09-19T04:41:10;100722.41;;;17.81
18161;BMP280;9205;52.032;4.314;2023-09-19T04:43:37;100727.63;;;17.80
18161;BMP280;9205;52.032;4.314;2023-09-19T04:46:04;100722.63;;;17.77
18161;BMP280;9205;52.032;4.314;2023-09-19T04:48:32;100718.41;;;17.76
18161;BMP280;9205;52.032;4.314;2023-09-19T04:51:00;100724.31;;;17.78
18161;BMP280;9205;52.032;4.314;2023-09-19T04:53:29;100709.78;;;17.77
18161;BMP280;9205;52.032;4.314;2023-09-19T04:55:56;100713.25;;;17.76
18161;BMP280;9205;52.032;4.314;2023-09-19T04:58:23;100726.88;;;17.78
18161;BMP280;9205;52.032;4.314;2023-09-19T05:00:51;100731.88;;;17.81
18161;BMP280;9205;52.032;4.314;2023-09-19T05:03:18;100721.72;;;17.78
18161;BMP280;9205;52.032;4.314;2023-09-19T05:05:45;100734.44;;;17.81
18161;BMP280;9205;52.032;4.314;2023-09-19T05:08:13;100721.59;;;17.81
18161;BMP280;9205;52.032;4.314;2023-09-19T05:10:42;100724.88;;;17.83
18161;BMP280;9205;52.032;4.314;2023-09-19T05:13:09;100726.31;;;17.88
18161;BMP280;9205;52.032;4.314;2023-09-19T05:15:36;100724.41;;;17.92
18161;BMP280;9205;52.032;4.314;2023-09-19T05:18:05;100724.53;;;17.89
18161;BMP280;9205;52.032;4.314;2023-09-19T05:20:33;100722.72;;;17.91
18161;BMP280;9205;52.032;4.314;2023-09-19T05:23:05;100718.34;;;17.93
18161;BMP280;9205;52.032;4.314;2023-09-19T05:25:36;100707.97;;;17.94
18161;BMP280;9205;52.032;4.314;2023-09-19T05:28:07;100711.22;;;17.98
18161;BMP280;9205;52.032;4.314;2023-09-19T05:30:35;100700.03;;;17.99
18161;BMP280;9205;52.032;4.314;2023-09-19T05:33:04;100707.97;;;17.94
18161;BMP280;9205;52.032;4.314;2023-09-19T05:35:32;100716.59;;;17.93
18161;BMP280;9205;52.032;4.314;2023-09-19T05:38:00;100720.94;;;17.93
18161;BMP280;9205;52.032;4.314;2023-09-19T05:40:27;100726.06;;;17.93
18161;BMP280;9205;52.032;4.314;2023-09-19T05:42:54;100728.47;;;17.96
18161;BMP280;9205;52.032;4.314;2023-09-19T05:45:22;100725.91;;;17.96
18161;BMP280;9205;52.032;4.314;2023-09-19T05:47:51;100731.78;;;17.98
18161;BMP280;9205;52.032;4.314;2023-09-19T05:50:21;100731.78;;;17.98
18161;BMP280;9205;52.032;4.314;2023-09-19T05:52:54;100734.34;;;17.98
18161;BMP280;9205;52.032;4.314;2023-09-19T05:55:22;100737.69;;;18.00
18161;BMP280;9205;52.032;4.314;2023-09-19T05:57:51;100736.69;;;18.02
18161;BMP280;9205;52.032;4.314;2023-09-19T06:00:18;100732.38;;;18.03
18161;BMP280;9205;52.032;4.314;2023-09-19T06:02:51;100739.09;;;18.05
18161;BMP280;9205;52.032;4.314;2023-09-19T06:05:19;100749.47;;;18.04
18161;BMP280;9205;52.032;4.314;2023-09-19T06:07:47;100738.19;;;18.06
18161;BMP280;9205;52.032;4.314;2023-09-19T06:10:14;100742.34;;;18.08
18161;BMP280;9205;52.032;4.314;2023-09-19T06:12:43;100738.91;;;18.08
18161;BMP280;9205;52.032;4.314;2023-09-19T06:15:12;100731.19;;;18.08
18161;BMP280;9205;52.032;4.314;2023-09-19T06:17:42;100742.34;;;18.08
18161;BMP280;9205;52.032;4.314;2023-09-19T06:20:11;100759.41;;;18.09
18161;BMP280;9205;52.032;4.314;2023-09-19T06:22:41;100749.91;;;18.11
18161;BMP280;9205;52.032;4.314;2023-09-19T06:25:09;100749.13;;;18.09
18161;BMP280;9205;52.032;4.314;2023-09-19T06:27:38;100744.91;;;18.08
18161;BMP280;9205;52.032;4.314;2023-09-19T06:30:08;100755.94;;;18.10
18161;BMP280;9205;52.032;4.314;2023-09-19T06:32:37;100750.84;;;18.09
18161;BMP280;9205;52.032;4.314;2023-09-19T06:35:05;100761.09;;;18.10
18161;BMP280;9205;52.032;4.314;2023-09-19T06:37:36;100747.31;;;18.11
18161;BMP280;9205;52.032;4.314;2023-09-19T06:40:07;100753.94;;;18.15
18161;BMP280;9205;52.032;4.314;2023-09-19T06:42:35;100757.59;;;18.11
18161;BMP280;9205;52.032;4.314;2023-09-19T06:45:05;100766.22;;;18.10
18161;BMP280;9205;52.032;4.314;2023-09-19T06:47:32;100759.22;;;18.12
18161;BMP280;9205;52.032;4.314;2023-09-19T06:50:00;100771.03;;;18.16
18161;BMP280;9205;52.032;4.314;2023-09-19T06:52:28;100765.72;;;18.19
18161;BMP280;9205;52.032;4.314;2023-09-19T06:54:57;100759.91;;;18.16
18161;BMP280;9205;52.032;4.314;2023-09-19T06:57:24;100750.13;;;18.07
18161;BMP280;9205;52.032;4.314;2023-09-19T06:59:51;100756.44;;;18.02
18161;BMP280;9205;52.032;4.314;2023-09-19T07:02:18;100752.53;;;17.95
18161;BMP280;9205;52.032;4.314;2023-09-19T07:04:48;100760.22;;;17.95
18161;BMP280;9205;52.032;4.314;2023-09-19T07:07:15;100760.38;;;17.92
18161;BMP280;9205;52.032;4.314;2023-09-19T07:09:42;100751.25;;;17.86
18161;BMP280;9205;52.032;4.314;2023-09-19T07:12:11;100750.56;;;17.83
18161;BMP280;9205;52.032;4.314;2023-09-19T07:14:39;100751.31;;;17.85
18161;BMP280;9205;52.032;4.314;2023-09-19T07:17:06;100759.63;;;17.90
18161;BMP280;9205;52.032;4.314;2023-09-19T07:19:33;100761.22;;;17.92
18161;BMP280;9205;52.032;4.314;2023-09-19T07:22:00;100761.28;;;17.91
18161;BMP280;9205;52.032;4.314;2023-09-19T07:24:28;100768.22;;;17.89
18161;BMP280;9205;52.032;4.314;2023-09-19T07:26:55;100777.69;;;17.88
18161;BMP280;9205;52.032;4.314;2023-09-19T07:29:24;100781.78;;;17.92
18161;BMP280;9205;52.032;4.314;2023-09-19T07:31:52;100769.16;;;17.88
18161;BMP280;9205;52.032;4.314;2023-09-19T07:34:20;100768.66;;;17.81
18161;BMP280;9205;52.032;4.314;2023-09-19T07:36:48;100776.44;;;17.80
18161;BMP280;9205;52.032;4.314;2023-09-19T07:39:16;100774.16;;;17.74
18161;BMP280;9205;52.032;4.314;2023-09-19T07:41:43;100770.03;;;17.71
18161;BMP280;9205;52.032;4.314;2023-09-19T07:44:10;100766.47;;;17.74
18161;BMP280;9205;52.032;4.314;2023-09-19T07:46:39;100762.16;;;17.74
18161;BMP280;9205;52.032;4.314;2023-09-19T07:49:06;100768.06;;;17.76
18161;BMP280;9205;52.032;4.314;2023-09-19T07:51:33;100779.25;;;17.75
18161;BMP280;9205;52.032;4.314;2023-09-19T07:54:01;100762.84;;;17.78
18161;BMP280;9205;52.032;4.314;2023-09-19T07:56:29;100766.97;;;17.80
18161;BMP280;9205;52.032;4.314;2023-09-19T07:58:57;100760.28;;;17.78
18161;BMP280;9205;52.032;4.314;2023-09-19T08:01:25;100769.78;;;17.76
18161;BMP280;9205;52.032;4.314;2023-09-19T08:03:54;100756.13;;;17.75
18161;BMP280;9205;52.032;4.314;2023-09-19T08:06:21;100757.69;;;17.78
18161;BMP280;9205;52.032;4.314;2023-09-19T08:08:51;100744.09;;;17.76
18161;BMP280;9205;52.032;4.314;2023-09-19T08:11:20;100750.22;;;17.73
18161;BMP280;9205;52.032;4.314;2023-09-19T08:13:50;100745.00;;;17.75
18161;BMP280;9205;52.032;4.314;2023-09-19T08:16:18;100739.81;;;17.76
18161;BMP280;9205;52.032;4.314;2023-09-19T08:18:48;100749.00;;;17.80
18161;BMP280;9205;52.032;4.314;2023-09-19T08:21:22;100746.78;;;17.90
18161;BMP280;9205;52.032;4.314;2023-09-19T08:23:50;100759.38;;;17.94
18161;BMP280;9205;52.032;4.314;2023-09-19T08:26:17;100764.38;;;17.97
18161;BMP280;9205;52.032;4.314;2023-09-19T08:28:45;100748.19;;;17.95
18161;BMP280;9205;52.032;4.314;2023-09-19T08:31:13;100753.19;;;17.98
18161;BMP280;9205;52.032;4.314;2023-09-19T08:33:43;100754.00;;;17.99
18161;BMP280;9205;52.032;4.314;2023-09-19T08:36:11;100758.38;;;17.97
18161;BMP280;9205;52.032;4.314;2023-09-19T08:38:41;100756.66;;;17.97
18161;BMP280;9205;52.032;4.314;2023-09-19T08:41:08;100769.41;;;17.99
18161;BMP280;9205;52.032;4.314;2023-09-19T08:43:36;100749.44;;;17.88
18161;BMP280;9205;52.032;4.314;2023-09-19T08:46:10;100744.94;;;17.76
18161;BMP280;9205;52.032;4.314;2023-09-19T08:48:45;100745.75;;;17.77
18161;BMP280;9205;52.032;4.314;2023-09-19T08:51:22;100745.75;;;17.77
18161;BMP280;9205;52.032;4.314;2023-09-19T08:54:03;100744.53;;;17.84
18161;BMP280;9205;52.032;4.314;2023-09-19T08:56:33;100738.34;;;17.88
18161;BMP280;9205;52.032;4.314;2023-09-19T08:59:03;100746.63;;;17.93
18161;BMP280;9205;52.032;4.314;2023-09-19T09:01:33;100751.19;;;18.03
18161;BMP280;9205;52.032;4.314;2023-09-19T09:04:02;100758.91;;;18.03
18161;BMP280;9205;52.032;4.314;2023-09-19T09:06:31;100753.44;;;18.09
18161;BMP280;9205;52.032;4.314;2023-09-19T09:09:01;100729.91;;;18.16
18161;BMP280;9205;52.032;4.314;2023-09-19T09:11:33;100736.41;;;18.23
18161;BMP280;9205;52.032;4.314;2023-09-19T09:14:00;100735.06;;;18.32
18161;BMP280;9205;52.032;4.314;2023-09-19T09:16:30;100741.88;;;18.48
18161;BMP280;9205;52.032;4.314;2023-09-19T09:18:57;100742.28;;;18.56
18161;BMP280;9205;52.032;4.314;2023-09-19T09:21:26;100738.25;;;18.66
18161;BMP280;9205;52.032;4.314;2023-09-19T09:23:53;100753.69;;;18.66
18161;BMP280;9205;52.032;4.314;2023-09-19T09:26:41;100738.84;;;18.71
18161;BMP280;9205;52.032;4.314;2023-09-19T09:29:09;100765.56;;;18.84
18161;BMP280;9205;52.032;4.314;2023-09-19T09:31:36;100744.97;;;18.84
18161;BMP280;9205;52.032;4.314;2023-09-19T09:34:07;100739.66;;;18.87
18161;BMP280;9205;52.032;4.314;2023-09-19T09:36:36;100740.06;;;18.95
18161;BMP280;9205;52.032;4.314;2023-09-19T09:39:05;100731.41;;;18.96
18161;BMP280;9205;52.032;4.314;2023-09-19T09:41:45;100738.19;;;18.97
18161;BMP280;9205;52.032;4.314;2023-09-19T09:44:14;100726.34;;;18.94
18161;BMP280;9205;52.032;4.314;2023-09-19T09:46:43;100736.72;;;18.93
18161;BMP280;9205;52.032;4.314;2023-09-19T09:49:28;100732.13;;;18.98
18161;BMP280;9205;52.032;4.314;2023-09-19T09:52:02;100724.25;;;19.01
18161;BMP280;9205;52.032;4.314;2023-09-19T09:54:33;100719.00;;;19.02
18161;BMP280;9205;52.032;4.314;2023-09-19T09:57:06;100723.25;;;19.03
18161;BMP280;9205;52.032;4.314;2023-09-19T09:59:51;100710.78;;;19.11
18161;BMP280;9205;52.032;4.314;2023-09-19T10:02:25;100711.44;;;19.15
18161;BMP280;9205;52.032;4.314;2023-09-19T10:04:55;100720.81;;;19.16
18161;BMP280;9205;52.032;4.314;2023-09-19T10:07:35;100709.97;;;19.11
18161;BMP280;9205;52.032;4.314;2023-09-19T10:10:07;100703.63;;;19.16
18161;BMP280;9205;52.032;4.314;2023-09-19T10:12:48;100705.00;;;19.22
18161;BMP280;9205;52.032;4.314;2023-09-19T10:15:18;100721.09;;;19.25
18161;BMP280;9205;52.032;4.314;2023-09-19T10:17:47;100694.44;;;19.40
18161;BMP280;9205;52.032;4.314;2023-09-19T10:20:17;100707.81;;;19.47
18161;BMP280;9205;52.032;4.314;2023-09-19T10:23:00;100698.03;;;19.52
18161;BMP280;9205;52.032;4.314;2023-09-19T10:25:29;100700.72;;;19.50
18161;BMP280;9205;52.032;4.314;2023-09-19T10:28:01;100690.41;;;19.50
18161;BMP280;9205;52.032;4.314;2023-09-19T10:30:31;100689.66;;;19.62
18161;BMP280;9205;52.032;4.314;2023-09-19T10:33:02;100709.47;;;19.62
18161;BMP280;9205;52.032;4.314;2023-09-19T10:35:29;100703.03;;;19.55
18161;BMP280;9205;52.032;4.314;2023-09-19T10:38:00;100680.75;;;19.54
18161;BMP280;9205;52.032;4.314;2023-09-19T10:40:28;100671.06;;;19.71
18161;BMP280;9205;52.032;4.314;2023-09-19T10:43:04;100689.19;;;19.83
18161;BMP280;9205;52.032;4.314;2023-09-19T10:45:34;100669.97;;;19.89
18161;BMP280;9205;52.032;4.314;2023-09-19T10:48:05;100681.72;;;19.93
18161;BMP280;9205;52.032;4.314;2023-09-19T10:50:43;100675.38;;;19.98
18161;BMP280;9205;52.032;4.314;2023-09-19T10:53:13;100670.34;;;19.97
18161;BMP280;9205;52.032;4.314;2023-09-19T10:55:50;100671.50;;;19.91
18161;BMP280;9205;52.032;4.314;2023-09-19T10:58:29;100676.53;;;19.94
18161;BMP280;9205;52.032;4.314;2023-09-19T11:01:01;100667.03;;;19.95
18161;BMP280;9205;52.032;4.314;2023-09-19T11:03:38;100673.94;;;19.94
18161;BMP280;9205;52.032;4.314;2023-09-19T11:06:16;100685.00;;;19.96
18161;BMP280;9205;52.032;4.314;2023-09-19T11:09:02;100657.16;;;20.01
18161;BMP280;9205;52.032;4.314;2023-09-19T11:11:52;100679.25;;;20.05
18161;BMP280;9205;52.032;4.314;2023-09-19T11:14:41;100656.25;;;19.88
18161;BMP280;9205;52.032;4.314;2023-09-19T11:17:41;100655.63;;;19.85
18161;BMP280;9205;52.032;4.314;2023-09-19T11:20:22;100662.03;;;19.78
18161;BMP280;9205;52.032;4.314;2023-09-19T11:23:23;100665.94;;;19.85
18161;BMP280;9205;52.032;4.314;2023-09-19T11:25:53;100653.84;;;19.99
18161;BMP280;9205;52.032;4.314;2023-09-19T11:28:31;100649.44;;;20.01
18161;BMP280;9205;52.032;4.314;2023-09-19T11:31:50;100648.13;;;20.08
18161;BMP280;9205;52.032;4.314;2023-09-19T11:34:46;100663.41;;;19.97
18161;BMP280;9205;52.032;4.314;2023-09-19T11:38:04;100662.84;;;19.92
18161;BMP280;9205;52.032;4.314;2023-09-19T11:40:37;100665.81;;;19.86
18161;BMP280;9205;52.032;4.314;2023-09-19T11:43:30;100657.25;;;19.86
18161;BMP280;9205;52.032;4.314;2023-09-19T11:46:08;100656.25;;;19.88
18161;BMP280;9205;52.032;4.314;2023-09-19T11:48:36;100643.25;;;19.90
18161;BMP280;9205;52.032;4.314;2023-09-19T11:51:18;100662.72;;;19.95
18161;BMP280;9205;52.032;4.314;2023-09-19T11:53:55;100641.25;;;19.95
18161;BMP280;9205;52.032;4.314;2023-09-19T11:56:24;100641.88;;;19.98
18161;BMP280;9205;52.032;4.314;2023-09-19T11:58:56;100636.25;;;20.06
18161;BMP280;9205;52.032;4.314;2023-09-19T12:01:30;100633.44;;;20.23
18161;BMP280;9205;52.032;4.314;2023-09-19T12:04:01;100644.03;;;20.45
18161;BMP280;9205;52.032;4.314;2023-09-19T12:06:30;100647.75;;;20.53
18161;BMP280;9205;52.032;4.314;2023-09-19T12:08:59;100634.44;;;20.59
18161;BMP280;9205;52.032;4.314;2023-09-19T12:11:29;100674.34;;;20.67
18161;BMP280;9205;52.032;4.314;2023-09-19T12:13:59;100649.00;;;20.60
18161;BMP280;9205;52.032;4.314;2023-09-19T12:16:28;100655.66;;;20.64
18161;BMP280;9205;52.032;4.314;2023-09-19T12:18:57;100650.81;;;20.72
18161;BMP280;9205;52.032;4.314;2023-09-19T12:21:27;100660.22;;;20.73
18161;BMP280;9205;52.032;4.314;2023-09-19T12:24:11;100667.22;;;20.71
18161;BMP280;9205;52.032;4.314;2023-09-19T12:26:40;100662.75;;;20.60
18161;BMP280;9205;52.032;4.314;2023-09-19T12:29:21;100669.94;;;20.55
18161;BMP280;9205;52.032;4.314;2023-09-19T12:31:52;100674.47;;;20.52
18161;BMP280;9205;52.032;4.314;2023-09-19T12:34:25;100663.97;;;20.55
18161;BMP280;9205;52.032;4.314;2023-09-19T12:37:11;100653.06;;;20.64
18161;BMP280;9205;52.032;4.314;2023-09-19T12:39:40;100653.06;;;20.64
18161;BMP280;9205;52.032;4.314;2023-09-19T12:42:10;100640.72;;;20.81
18161;BMP280;9205;52.032;4.314;2023-09-19T12:44:42;100664.59;;;20.85
18161;BMP280;9205;52.032;4.314;2023-09-19T12:47:15;100638.25;;;20.80
18161;BMP280;9205;52.032;4.314;2023-09-19T12:50:09;100644.00;;;20.71
18161;BMP280;9205;52.032;4.314;2023-09-19T12:52:46;100652.63;;;20.57
18161;BMP280;9205;52.032;4.314;2023-09-19T12:55:22;100651.47;;;20.49
18161;BMP280;9205;52.032;4.314;2023-09-19T12:58:07;100648.78;;;20.50
18161;BMP280;9205;52.032;4.314;2023-09-19T13:00:39;100664.75;;;20.43
18161;BMP280;9205;52.032;4.314;2023-09-19T13:03:13;100654.31;;;20.32
18161;BMP280;9205;52.032;4.314;2023-09-19T13:05:52;100659.41;;;20.20
18161;BMP280;9205;52.032;4.314;2023-09-19T13:08:27;100670.31;;;20.11
18161;BMP280;9205;52.032;4.314;2023-09-19T13:11:03;100645.53;;;20.08
18161;BMP280;9205;52.032;4.314;2023-09-19T13:13:32;100648.94;;;20.09
18161;BMP280;9205;52.032;4.314;2023-09-19T13:16:03;100637.22;;;20.17
18161;BMP280;9205;52.032;4.314;2023-09-19T13:18:47;100624.22;;;20.19
18161;BMP280;9205;52.032;4.314;2023-09-19T13:21:26;100621.53;;;20.20
18161;BMP280;9205;52.032;4.314;2023-09-19T13:23:55;100646.53;;;20.20
18161;BMP280;9205;52.032;4.314;2023-09-19T13:26:25;100641.53;;;20.17
18161;BMP280;9205;52.032;4.314;2023-09-19T13:28:53;100653.50;;;20.18
18161;BMP280;9205;52.032;4.314;2023-09-19T13:31:21;100651.22;;;20.13
18161;BMP280;9205;52.032;4.314;2023-09-19T13:33:50;100675.66;;;20.08
18161;BMP280;9205;52.032;4.314;2023-09-19T13:36:18;100657.56;;;19.95
18161;BMP280;9205;52.032;4.314;2023-09-19T13:38:45;100654.38;;;19.90
18161;BMP280;9205;52.032;4.314;2023-09-19T13:41:14;100651.09;;;19.88
18161;BMP280;9205;52.032;4.314;2023-09-19T13:43:42;100642.41;;;19.89
18161;BMP280;9205;52.032;4.314;2023-09-19T13:46:14;100635.28;;;19.94
18161;BMP280;9205;52.032;4.314;2023-09-19T13:48:43;100633.59;;;19.93
18161;BMP280;9205;52.032;4.314;2023-09-19T13:51:12;100642.25;;;19.92
18161;BMP280;9205;52.032;4.314;2023-09-19T13:53:40;100668.41;;;19.86
18161;BMP280;9205;52.032;4.314;2023-09-19T13:56:07;100668.03;;;19.78
18161;BMP280;9205;52.032;4.314;2023-09-19T13:58:35;100680.31;;;19.61
18161;BMP280;9205;52.032;4.314;2023-09-19T14:01:02;100662.81;;;19.52
18161;BMP280;9205;52.032;4.314;2023-09-19T14:03:29;100657.66;;;19.52
18161;BMP280;9205;52.032;4.314;2023-09-19T14:05:57;100659.88;;;19.58
18161;BMP280;9205;52.032;4.314;2023-09-19T14:08:26;100636.31;;;19.64
18161;BMP280;9205;52.032;4.314;2023-09-19T14:10:53;100636.94;;;19.67
18161;BMP280;9205;52.032;4.314;2023-09-19T14:13:20;100655.19;;;19.65
18161;BMP280;9205;52.032;4.314;2023-09-19T14:15:47;100642.66;;;19.59
18161;BMP280;9205;52.032;4.314;2023-09-19T14:18:15;100659.06;;;19.58
18161;BMP280;9205;52.032;4.314;2023-09-19T14:20:42;100642.84;;;19.56
18161;BMP280;9205;52.032;4.314;2023-09-19T14:23:09;100643.03;;;19.53
18161;BMP280;9205;52.032;4.314;2023-09-19T14:25:39;100623.91;;;19.57
18161;BMP280;9205;52.032;4.314;2023-09-19T14:28:07;100621.13;;;19.60
18161;BMP280;9205;52.032;4.314;2023-09-19T14:30:35;100622.97;;;19.58
18161;BMP280;9205;52.032;4.314;2023-09-19T14:33:04;100630.59;;;19.59
18161;BMP280;9205;52.032;4.314;2023-09-19T14:35:31;100638.50;;;19.56